Time;durP1;ratioP1;P1;durP2;ratioP2;P2;SDS_P1;SDS_P2;PMS_P1;PMS_P2;Temp;Humidity;BMP_temperature;BMP_pressure;BME280_temperature;BME280_humidity;BME280_pressure;Samples;Min_cycle;Max_cycle;Signal;HPM_P1;HPM_P2
2022/06/21 00:00:26;;;;;;;17.60;12.90;;;12.60;99.90;;;;;;4949298;28;20224;-71
2022/06/21 00:03:05;;;;;;;15.73;11.50;;;12.50;99.90;;;;;;4950211;28;20225;-71
2022/06/21 00:05:34;;;;;;;15.60;11.20;;;12.20;99.90;;;;;;4941293;28;20199;-73
2022/06/21 00:08:14;;;;;;;13.73;11.13;;;12.10;99.90;;;;;;4942461;28;20195;-72
2022/06/21 00:10:41;;;;;;;14.13;10.93;;;12.10;99.90;;;;;;4949607;28;20213;-70
2022/06/21 00:13:13;;;;;;;15.57;12.03;;;12.20;99.90;;;;;;4947114;28;20627;-72
2022/06/21 00:15:40;;;;;;;17.70;11.33;;;12.30;99.90;;;;;;4950783;28;20216;-72
2022/06/21 00:18:13;;;;;;;19.20;11.87;;;12.20;99.90;;;;;;4951680;29;20573;-72
2022/06/21 00:20:41;;;;;;;24.27;12.50;;;12.20;99.90;;;;;;4942984;28;20207;-71
2022/06/21 00:23:14;;;;;;;16.47;11.43;;;12.10;99.90;;;;;;4942534;28;20226;-71
2022/06/21 00:25:41;;;;;;;17.10;12.40;;;11.90;99.90;;;;;;4937691;28;20212;-69
2022/06/21 00:28:09;;;;;;;16.10;11.30;;;11.80;99.90;;;;;;4951651;28;20265;-71
2022/06/21 00:30:36;;;;;;;14.17;11.37;;;11.70;99.90;;;;;;4944347;28;20202;-70
2022/06/21 00:33:02;;;;;;;19.80;12.90;;;11.60;99.90;;;;;;4946239;28;20219;-70
2022/06/21 00:35:29;;;;;;;16.03;12.20;;;11.60;99.90;;;;;;4946566;29;20204;-72
2022/06/21 00:37:56;;;;;;;18.73;12.60;;;11.80;99.90;;;;;;4950065;28;20209;-72
2022/06/21 00:40:30;;;;;;;16.17;11.47;;;11.90;99.90;;;;;;4944669;28;20237;-71
2022/06/21 00:43:07;;;;;;;17.43;11.57;;;12.00;99.90;;;;;;4944086;28;20713;-70
2022/06/21 00:45:38;;;;;;;16.03;11.40;;;12.10;99.90;;;;;;4946226;28;20208;-72
2022/06/21 00:48:16;;;;;;;18.63;12.30;;;12.20;99.90;;;;;;4950794;28;20213;-71
2022/06/21 00:50:50;;;;;;;15.17;12.03;;;12.10;99.90;;;;;;4937899;28;20228;-74
2022/06/21 00:53:38;;;;;;;16.87;12.10;;;11.90;99.90;;;;;;4944944;28;20250;-71
2022/06/21 00:56:11;;;;;;;16.93;12.47;;;11.70;99.90;;;;;;4942598;28;20203;-72
2022/06/21 00:58:38;;;;;;;15.43;10.83;;;11.60;99.90;;;;;;4949588;29;20200;-72
2022/06/21 01:01:13;;;;;;;14.03;11.10;;;11.50;99.90;;;;;;4945940;28;20208;-70
2022/06/21 01:03:44;;;;;;;16.73;10.77;;;11.40;99.90;;;;;;4943620;28;20272;-73
2022/06/21 01:06:23;;;;;;;17.50;12.03;;;11.40;99.90;;;;;;4943725;28;20205;-73
2022/06/21 01:09:00;;;;;;;17.40;12.67;;;11.50;99.90;;;;;;4941457;28;20210;-71
2022/06/21 01:11:37;;;;;;;16.50;12.20;;;11.60;99.90;;;;;;4945629;28;20695;-72
2022/06/21 01:14:05;;;;;;;19.73;12.17;;;11.70;99.90;;;;;;4943597;28;20233;-74
2022/06/21 01:16:33;;;;;;;16.33;12.27;;;11.50;99.90;;;;;;4947889;28;20205;-72
2022/06/21 01:19:01;;;;;;;15.70;11.73;;;11.40;99.90;;;;;;4936256;28;20205;-72
2022/06/21 01:21:30;;;;;;;15.90;10.80;;;11.40;99.90;;;;;;4944500;28;20219;-72
2022/06/21 01:24:08;;;;;;;16.40;11.43;;;11.30;99.90;;;;;;4949361;28;20235;-71
2022/06/21 01:26:43;;;;;;;15.47;11.73;;;11.30;99.90;;;;;;4944533;28;20734;-71
2022/06/21 01:29:17;;;;;;;16.40;12.47;;;11.40;99.90;;;;;;4935255;28;20257;-71
2022/06/21 01:31:44;;;;;;;17.20;12.57;;;11.60;99.90;;;;;;4948508;29;20219;-73
2022/06/21 01:34:24;;;;;;;17.73;12.30;;;11.60;99.90;;;;;;4946285;28;20220;-72
2022/06/21 01:36:57;;;;;;;14.97;11.67;;;11.60;99.90;;;;;;4950080;29;20214;-72
2022/06/21 01:39:46;;;;;;;18.30;11.80;;;11.50;99.90;;;;;;4944426;28;20704;-71
2022/06/21 01:42:16;;;;;;;15.70;12.73;;;11.30;99.90;;;;;;4944614;29;20230;-72
2022/06/21 01:44:50;;;;;;;16.83;11.17;;;11.30;99.90;;;;;;4950136;28;20209;-71
2022/06/21 01:47:22;;;;;;;15.90;11.73;;;11.30;99.90;;;;;;4951071;28;20665;-71
2022/06/21 01:50:04;;;;;;;16.10;11.40;;;11.40;99.90;;;;;;4946158;28;20201;-71
2022/06/21 01:52:36;;;;;;;17.00;11.43;;;11.40;99.90;;;;;;4941205;28;20765;-73
2022/06/21 01:55:07;;;;;;;17.83;12.27;;;11.30;99.90;;;;;;4961129;28;20205;-72
2022/06/21 01:57:36;;;;;;;15.43;11.33;;;11.30;99.90;;;;;;4946757;28;20205;-72
2022/06/21 02:00:04;;;;;;;18.90;11.70;;;11.20;99.90;;;;;;4946563;28;20198;-72
2022/06/21 02:02:59;;;;;;;17.67;11.77;;;11.10;99.90;;;;;;4947489;29;20223;-71
2022/06/21 02:05:32;;;;;;;16.13;11.80;;;11.30;99.90;;;;;;4943435;29;20658;-72
2022/06/21 02:08:08;;;;;;;16.57;11.53;;;11.00;99.90;;;;;;4948518;28;20205;-73
2022/06/21 02:10:40;;;;;;;17.00;11.83;;;11.00;99.90;;;;;;4949757;29;20195;-72
2022/06/21 02:13:30;;;;;;;15.43;12.37;;;11.00;99.90;;;;;;4943937;29;20224;-72
2022/06/21 02:16:02;;;;;;;17.20;12.07;;;11.10;99.90;;;;;;4947193;28;20199;-74
2022/06/21 02:18:32;;;;;;;15.67;12.63;;;11.20;99.90;;;;;;4946808;28;20300;-73
2022/06/21 02:20:58;;;;;;;19.00;12.03;;;11.30;99.90;;;;;;4952195;28;20194;-72
2022/06/21 02:23:25;;;;;;;14.87;11.27;;;11.30;99.90;;;;;;4953473;29;20230;-72
2022/06/21 02:25:55;;;;;;;15.07;11.57;;;11.10;99.90;;;;;;4948857;28;20205;-72
2022/06/21 02:28:23;;;;;;;17.17;11.57;;;11.00;99.90;;;;;;4951825;28;20204;-74
2022/06/21 02:30:52;;;;;;;16.00;12.03;;;10.90;99.90;;;;;;4947733;28;20208;-73
2022/06/21 02:33:25;;;;;;;15.83;11.30;;;10.80;99.90;;;;;;4953208;28;20702;-75
2022/06/21 02:36:01;;;;;;;15.13;11.67;;;10.70;99.90;;;;;;4953493;28;20208;-78
2022/06/21 02:38:49;;;;;;;17.37;12.27;;;10.80;99.90;;;;;;4952776;28;20198;-71
2022/06/21 02:41:33;;;;;;;16.00;12.63;;;10.90;99.90;;;;;;4946423;28;20213;-76
2022/06/21 02:44:21;;;;;;;15.63;10.87;;;11.00;99.90;;;;;;4952751;29;20206;-79
2022/06/21 02:46:52;;;;;;;17.47;11.27;;;10.80;99.90;;;;;;4952598;29;20229;-80
2022/06/21 02:49:28;;;;;;;17.03;11.47;;;10.70;99.90;;;;;;4948531;28;20206;-79
2022/06/21 02:51:59;;;;;;;14.73;12.00;;;10.60;99.90;;;;;;4947286;28;20225;-78
2022/06/21 02:54:44;;;;;;;17.03;11.43;;;10.60;99.90;;;;;;4952659;29;20219;-78
2022/06/21 02:57:19;;;;;;;14.13;10.90;;;10.80;99.90;;;;;;4950449;29;20697;-78
2022/06/21 02:59:48;;;;;;;15.77;11.53;;;10.80;99.90;;;;;;4948948;28;20218;-78
2022/06/21 03:02:20;;;;;;;18.83;12.10;;;10.80;99.90;;;;;;4948846;28;20224;-77
2022/06/21 03:04:57;;;;;;;18.57;12.93;;;10.80;99.90;;;;;;4954201;28;20197;-74
2022/06/21 03:07:39;;;;;;;18.37;12.83;;;10.90;99.90;;;;;;4949184;28;20702;-76
2022/06/21 03:10:14;;;;;;;15.93;11.70;;;10.90;99.90;;;;;;4945612;28;20202;-71
2022/06/21 03:12:41;;;;;;;16.77;12.33;;;10.80;99.90;;;;;;4951172;28;20259;-71
2022/06/21 03:15:11;;;;;;;18.53;12.20;;;10.70;99.90;;;;;;4943858;28;20246;-71
2022/06/21 03:18:01;;;;;;;16.67;11.70;;;10.60;99.90;;;;;;4953235;28;20194;-71
2022/06/21 03:20:30;;;;;;;16.23;11.57;;;10.80;99.90;;;;;;4945948;29;20202;-71
2022/06/21 03:22:58;;;;;;;15.67;11.17;;;10.90;99.90;;;;;;4949233;28;20636;-74
2022/06/21 03:25:38;;;;;;;15.23;11.70;;;10.80;99.90;;;;;;4946545;28;20208;-73
2022/06/21 03:28:22;;;;;;;16.27;11.47;;;10.80;99.90;;;;;;4947594;29;20198;-72
2022/06/21 03:30:54;;;;;;;12.63;9.93;;;10.90;99.90;;;;;;4952948;28;20206;-72
2022/06/21 03:33:21;;;;;;;14.77;10.80;;;10.80;99.90;;;;;;4946524;28;20705;-73
2022/06/21 03:35:48;;;;;;;16.30;12.40;;;10.70;99.90;;;;;;4950634;28;20196;-74
2022/06/21 03:38:14;;;;;;;16.97;11.40;;;10.70;99.90;;;;;;4951504;28;20210;-75
2022/06/21 03:43:39;;;;;;;13.17;9.63;;;10.90;99.90;;;;;;4942452;28;20206;-73
2022/06/21 03:46:11;;;;;;;14.43;10.83;;;10.80;99.90;;;;;;4949893;28;20586;-75
2022/06/21 03:48:53;;;;;;;13.83;9.93;;;10.80;99.90;;;;;;4950523;29;20213;-75
2022/06/21 03:51:26;;;;;;;14.10;10.13;;;10.80;99.90;;;;;;4941446;28;20220;-75
2022/06/21 03:54:00;;;;;;;15.20;9.90;;;10.90;99.90;;;;;;4951613;29;20229;-76
2022/06/21 03:56:34;;;;;;;15.37;10.23;;;11.00;99.90;;;;;;4948429;29;20205;-78
2022/06/21 03:59:19;;;;;;;14.77;11.00;;;11.10;99.90;;;;;;4949594;29;20202;-78
2022/06/21 04:01:55;;;;;;;15.63;11.03;;;11.00;99.90;;;;;;4950025;28;20223;-77
2022/06/21 04:04:37;;;;;;;14.13;10.70;;;10.90;99.90;;;;;;4941993;28;20203;-80
2022/06/21 04:07:17;;;;;;;17.67;11.23;;;11.00;99.90;;;;;;4946344;29;20269;-78
2022/06/21 04:09:53;;;;;;;15.03;10.30;;;11.20;99.90;;;;;;4946080;28;20202;-77
2022/06/21 04:12:35;;;;;;;15.37;10.20;;;11.30;99.90;;;;;;4950216;28;20222;-79
2022/06/21 04:15:13;;;;;;;12.60;9.73;;;11.30;99.90;;;;;;4945750;29;20730;-79
2022/06/21 04:17:47;;;;;;;12.20;8.97;;;11.20;99.90;;;;;;4949976;28;20194;-78
2022/06/21 04:20:27;;;;;;;16.93;9.73;;;11.20;99.90;;;;;;4946384;28;20282;-80
2022/06/21 04:23:22;;;;;;;13.60;9.47;;;11.20;99.90;;;;;;4947151;28;20244;-79
2022/06/21 04:26:00;;;;;;;12.23;9.30;;;11.20;99.90;;;;;;4944031;28;20204;-78
2022/06/21 04:28:58;;;;;;;13.40;9.73;;;11.40;99.90;;;;;;4948072;28;20205;-74
2022/06/21 04:31:29;;;;;;;13.17;9.73;;;11.50;99.90;;;;;;4943862;28;20218;-75
2022/06/21 04:33:57;;;;;;;14.63;10.00;;;11.50;99.90;;;;;;4945584;28;20271;-73
2022/06/21 04:36:42;;;;;;;13.63;9.47;;;11.50;99.90;;;;;;4947686;28;20201;-73
2022/06/21 04:39:15;;;;;;;13.40;9.53;;;11.70;99.90;;;;;;4949666;28;20198;-75
2022/06/21 04:41:48;;;;;;;12.93;9.33;;;11.90;99.90;;;;;;4945077;28;20731;-74
2022/06/21 04:44:33;;;;;;;11.37;8.57;;;12.00;99.90;;;;;;4948898;28;20268;-72
2022/06/21 04:47:22;;;;;;;12.17;9.67;;;12.20;99.90;;;;;;4949574;28;20701;-72
2022/06/21 04:49:58;;;;;;;11.50;8.47;;;12.30;99.90;;;;;;4943660;28;20198;-71
2022/06/21 04:52:24;;;;;;;12.90;8.73;;;12.50;99.90;;;;;;4944646;28;20225;-72
2022/06/21 04:54:52;;;;;;;11.17;8.80;;;12.50;99.90;;;;;;4949225;28;20222;-72
2022/06/21 04:57:21;;;;;;;11.73;8.03;;;12.50;99.90;;;;;;4951312;28;20198;-72
2022/06/21 04:59:51;;;;;;;10.63;8.07;;;12.70;99.90;;;;;;4944144;28;20206;-70
2022/06/21 05:02:18;;;;;;;9.47;7.70;;;12.80;99.90;;;;;;4951784;28;20221;-72
2022/06/21 05:04:48;;;;;;;8.53;7.20;;;12.90;99.90;;;;;;4949616;28;20229;-72
2022/06/21 05:07:20;;;;;;;9.47;7.10;;;13.10;99.90;;;;;;4943128;29;20204;-71
2022/06/21 05:09:48;;;;;;;11.23;7.40;;;13.10;99.90;;;;;;4943959;28;20199;-71
2022/06/21 05:12:31;;;;;;;11.67;7.73;;;13.10;99.90;;;;;;4943520;28;20730;-72
2022/06/21 05:15:14;;;;;;;11.23;7.27;;;13.20;99.90;;;;;;4948615;28;20220;-71
2022/06/21 05:17:47;;;;;;;10.70;7.00;;;13.40;99.90;;;;;;4950423;28;20200;-72
2022/06/21 05:20:24;;;;;;;10.27;7.93;;;13.40;99.90;;;;;;4944076;28;20205;-71
2022/06/21 05:22:54;;;;;;;9.93;7.27;;;13.60;99.90;;;;;;4946957;28;20706;-68
2022/06/21 05:25:30;;;;;;;9.83;7.53;;;13.70;99.90;;;;;;4943969;28;20621;-70
2022/06/21 05:28:02;;;;;;;9.10;7.43;;;13.90;99.90;;;;;;4948732;29;20524;-70
2022/06/21 05:30:45;;;;;;;11.57;7.13;;;14.30;99.90;;;;;;4948158;28;20201;-70
2022/06/21 05:33:32;;;;;;;11.07;6.60;;;14.80;99.90;;;;;;4948136;28;20291;-70
2022/06/21 05:36:06;;;;;;;11.47;6.93;;;15.20;99.90;;;;;;4947958;29;20217;-70
2022/06/21 05:38:36;;;;;;;13.27;6.97;;;15.50;99.90;;;;;;4949514;28;20681;-70
2022/06/21 05:41:30;;;;;;;12.53;6.27;;;15.50;99.90;;;;;;4948596;28;20210;-70
2022/06/21 05:44:09;;;;;;;12.77;6.20;;;15.50;99.90;;;;;;4947203;28;20209;-70
2022/06/21 05:46:53;;;;;;;10.10;6.37;;;15.70;99.90;;;;;;4935459;28;20198;-70
2022/06/21 05:49:34;;;;;;;11.10;5.60;;;15.70;99.90;;;;;;4944166;28;20213;-71
2022/06/21 05:52:10;;;;;;;16.63;6.20;;;15.80;99.90;;;;;;4948178;28;20222;-70
2022/06/21 05:54:51;;;;;;;11.77;5.93;;;16.00;99.90;;;;;;4947724;28;20224;-71
2022/06/21 05:57:21;;;;;;;16.10;6.67;;;16.20;99.90;;;;;;4945548;29;20257;-70
2022/06/21 05:59:48;;;;;;;11.00;6.00;;;16.40;99.90;;;;;;4945470;28;20205;-70
2022/06/21 06:02:45;;;;;;;16.27;6.23;;;16.50;99.90;;;;;;4946164;28;20225;-70
2022/06/21 06:05:17;;;;;;;10.60;6.17;;;16.50;99.90;;;;;;4941730;28;20202;-70
2022/06/21 06:07:56;;;;;;;9.73;5.50;;;16.60;99.90;;;;;;4950341;28;20210;-69
2022/06/21 06:10:25;;;;;;;16.63;6.30;;;16.70;99.90;;;;;;4944785;28;20213;-70
2022/06/21 06:12:59;;;;;;;12.57;5.50;;;16.80;99.90;;;;;;4948632;28;20218;-71
2022/06/21 06:15:40;;;;;;;12.90;6.10;;;16.80;99.90;;;;;;4944661;28;20218;-71
2022/06/21 06:18:17;;;;;;;11.20;6.50;;;17.00;99.90;;;;;;4947117;28;20611;-71
2022/06/21 06:20:46;;;;;;;11.80;7.37;;;17.10;99.90;;;;;;4949691;28;20693;-69
2022/06/21 06:23:24;;;;;;;10.53;6.93;;;17.40;99.90;;;;;;4949279;28;20285;-71
2022/06/21 06:26:03;;;;;;;13.07;7.53;;;17.90;99.90;;;;;;4945053;28;20194;-70
2022/06/21 06:28:39;;;;;;;13.20;7.70;;;17.80;99.90;;;;;;4942917;28;20217;-72
2022/06/21 06:31:22;;;;;;;12.80;7.07;;;17.80;99.90;;;;;;4945815;29;20199;-72
2022/06/21 06:33:55;;;;;;;14.67;7.93;;;17.70;99.90;;;;;;4944592;28;20624;-71
2022/06/21 06:36:29;;;;;;;10.57;7.80;;;17.60;99.90;;;;;;4945884;28;20675;-71
2022/06/21 06:38:58;;;;;;;12.53;7.97;;;17.60;99.90;;;;;;4943865;28;20207;-72
2022/06/21 06:41:35;;;;;;;13.03;7.97;;;17.60;99.90;;;;;;4948807;29;20638;-71
2022/06/21 06:44:06;;;;;;;10.87;7.93;;;17.70;99.90;;;;;;4945981;28;20254;-71
2022/06/21 06:46:36;;;;;;;13.70;8.17;;;17.80;99.90;;;;;;4945415;28;20289;-71
2022/06/21 06:49:26;;;;;;;11.47;7.90;;;17.90;99.90;;;;;;4944215;28;20206;-70
2022/06/21 06:52:09;;;;;;;10.27;8.53;;;18.20;99.90;;;;;;4946054;28;20222;-72
2022/06/21 06:54:45;;;;;;;13.77;8.87;;;18.40;99.90;;;;;;4940835;28;20229;-70
2022/06/21 06:57:36;;;;;;;11.23;8.07;;;18.50;99.90;;;;;;4940327;28;20194;-71
2022/06/21 07:00:22;;;;;;;10.57;7.97;;;18.90;99.90;;;;;;4944588;28;20211;-73
2022/06/21 07:03:06;;;;;;;12.50;7.97;;;19.20;99.90;;;;;;4945274;28;20222;-72
2022/06/21 07:05:39;;;;;;;14.60;8.37;;;19.40;99.90;;;;;;4947075;29;20211;-72
2022/06/21 07:08:16;;;;;;;18.63;8.03;;;19.90;99.90;;;;;;4950477;29;20209;-72
2022/06/21 07:10:47;;;;;;;19.52;9.07;;;20.70;99.90;;;;;;4952251;29;20201;-72
2022/06/21 07:13:14;;;;;;;14.73;8.40;;;21.50;99.90;;;;;;4953159;28;20824;-72
2022/06/21 07:15:44;;;;;;;12.07;7.70;;;22.00;99.90;;;;;;4949654;29;20441;-72
2022/06/21 07:18:16;;;;;;;14.00;7.72;;;22.40;99.90;;;;;;4949253;29;20201;-72
2022/06/21 07:20:45;;;;;;;14.30;8.35;;;22.30;99.90;;;;;;4951962;28;20195;-71
2022/06/21 07:23:17;;;;;;;12.60;8.95;;;21.70;99.90;;;;;;4950577;28;20226;-72
2022/06/21 07:26:04;;;;;;;12.90;7.83;;;21.80;99.90;;;;;;4951227;29;20666;-72
2022/06/21 07:28:49;;;;;;;13.55;8.73;;;21.60;99.90;;;;;;4950212;29;20205;-71
2022/06/21 07:31:22;;;;;;;11.63;7.75;;;21.60;99.90;;;;;;4950790;28;20210;-72
2022/06/21 07:33:58;;;;;;;13.88;7.30;;;21.80;99.90;;;;;;4952787;29;20265;-72
2022/06/21 07:36:31;;;;;;;11.48;7.15;;;22.60;99.90;;;;;;4948340;29;20206;-71
2022/06/21 07:39:04;;;;;;;16.95;8.07;;;23.00;99.90;;;;;;4947835;29;20192;-73
2022/06/21 07:41:43;;;;;;;22.73;7.97;;;22.70;99.90;;;;;;4947954;29;20249;-70
2022/06/21 07:44:38;;;;;;;15.90;7.07;;;23.00;99.90;;;;;;4953512;28;20198;-72
2022/06/21 07:47:21;;;;;;;7.32;5.72;;;23.50;99.90;;;;;;4947728;29;20202;-71
2022/06/21 07:49:50;;;;;;;10.40;6.13;;;23.60;99.90;;;;;;4947206;29;20214;-71
2022/06/21 07:52:31;;;;;;;8.82;6.30;;;23.80;99.90;;;;;;4949845;28;20221;-73
2022/06/21 07:55:02;;;;;;;11.20;6.90;;;23.60;99.90;;;;;;4950764;29;20230;-70
2022/06/21 07:57:38;;;;;;;11.75;6.68;;;23.50;99.90;;;;;;4950639;28;20198;-71
2022/06/21 08:00:15;;;;;;;6.55;5.82;;;23.10;99.90;;;;;;4951392;29;20201;-72
2022/06/21 08:09:14;;;;;;;11.65;6.53;;;22.60;99.90;;;;;;4949338;29;20571;-71
2022/06/21 08:11:44;;;;;;;10.65;6.32;;;22.20;99.90;;;;;;4945777;29;20221;-70
2022/06/21 08:14:13;;;;;;;14.00;6.88;;;21.90;99.90;;;;;;4945582;29;20210;-71
2022/06/21 08:16:52;;;;;;;10.38;6.40;;;21.30;99.90;;;;;;4949158;28;20191;-69
2022/06/21 08:19:36;;;;;;;11.18;5.80;;;21.00;99.90;;;;;;4946527;28;20234;-72
2022/06/21 08:22:41;;;;;;;7.70;5.50;;;21.20;99.90;;;;;;4949428;29;20218;-72
2022/06/21 08:25:08;;;;;;;12.02;4.82;;;21.20;99.90;;;;;;4951248;29;20213;-71
2022/06/21 08:27:39;;;;;;;8.43;5.20;;;21.10;99.90;;;;;;4949360;28;20236;-71
2022/06/21 08:30:16;;;;;;;11.13;5.07;;;21.20;99.90;;;;;;4949057;29;20573;-71
2022/06/21 08:32:58;;;;;;;7.65;4.53;;;21.10;99.90;;;;;;4947057;29;20718;-72
2022/06/21 08:35:37;;;;;;;4.45;3.88;;;21.10;99.90;;;;;;4947203;29;20225;-72
2022/06/21 08:38:30;;;;;;;6.25;3.75;;;21.00;99.90;;;;;;4946075;29;20605;-71
2022/06/21 08:44:27;;;;;;;11.80;4.03;;;21.20;99.90;;;;;;4947306;29;20210;-73
2022/06/21 08:47:27;;;;;;;5.25;3.95;;;21.40;99.90;;;;;;4948272;28;20202;-71
2022/06/21 08:50:39;;;;;;;7.95;4.30;;;22.00;99.90;;;;;;4946810;29;20199;-72
2022/06/21 08:53:16;;;;;;;7.22;3.80;;;22.20;99.90;;;;;;4947356;28;20725;-72
2022/06/21 08:55:52;;;;;;;7.00;3.92;;;22.30;99.90;;;;;;4945440;29;20229;-72
2022/06/21 08:58:44;;;;;;;11.00;3.70;;;22.70;99.90;;;;;;4950918;28;20205;-72
2022/06/21 09:01:22;;;;;;;7.03;3.80;;;22.90;99.90;;;;;;4951534;29;20678;-70
2022/06/21 09:04:07;;;;;;;7.05;3.40;;;23.10;99.90;;;;;;4950877;28;20202;-73
2022/06/21 09:06:50;;;;;;;9.70;3.78;;;23.30;99.90;;;;;;4945183;29;20224;-73
2022/06/21 09:09:19;;;;;;;8.32;3.75;;;22.80;99.90;;;;;;4948817;28;20208;-71
2022/06/21 09:12:23;;;;;;;7.13;3.30;;;22.60;99.90;;;;;;4951629;28;20217;-72
2022/06/21 09:15:23;;;;;;;6.35;3.53;;;22.60;99.90;;;;;;4947790;28;20329;-72
2022/06/21 09:18:17;;;;;;;6.93;3.53;;;22.80;99.90;;;;;;4950919;28;20194;-72
2022/06/21 09:21:05;;;;;;;6.32;3.80;;;23.10;99.90;;;;;;4946774;28;20194;-72
2022/06/21 09:23:47;;;;;;;5.43;3.38;;;23.30;99.90;;;;;;4944547;29;20231;-72
2022/06/21 09:26:33;;;;;;;7.90;3.58;;;23.50;99.90;;;;;;4949974;28;20206;-70
2022/06/21 09:29:06;;;;;;;10.38;3.75;;;23.60;99.90;;;;;;4950155;28;20212;-72
2022/06/21 09:31:48;;;;;;;8.48;3.90;;;23.70;99.90;;;;;;4949014;29;20221;-72
2022/06/21 09:34:22;;;;;;;8.55;4.00;;;23.50;99.90;;;;;;4947008;28;20684;-71
2022/06/21 09:37:23;;;;;;;4.78;3.22;;;23.30;99.90;;;;;;4951176;28;20218;-72
2022/06/21 09:40:05;;;;;;;6.40;3.88;;;23.40;99.90;;;;;;4949483;29;20194;-72
2022/06/21 09:43:02;;;;;;;8.45;4.05;;;23.60;99.90;;;;;;4945133;29;20288;-72
2022/06/21 09:45:37;;;;;;;5.55;3.72;;;24.00;99.90;;;;;;4949562;28;20198;-72
2022/06/21 09:48:32;;;;;;;5.78;3.80;;;23.70;99.90;;;;;;4946542;29;20568;-70
2022/06/21 09:51:32;;;;;;;5.70;3.20;;;23.70;99.90;;;;;;4945739;29;20268;-72
2022/06/21 09:54:17;;;;;;;9.82;4.00;;;24.30;99.90;;;;;;4950939;28;20286;-71
2022/06/21 09:57:14;;;;;;;6.53;3.28;;;24.60;99.90;;;;;;4945821;29;20225;-70
2022/06/21 09:59:51;;;;;;;8.40;4.32;;;24.80;99.90;;;;;;4946602;29;20191;-72
2022/06/21 10:03:07;;;;;;;4.38;3.38;;;25.30;99.90;;;;;;4951270;28;20218;-72
2022/06/21 10:05:46;;;;;;;6.15;3.78;;;25.90;99.90;;;;;;4950985;28;20213;-73
2022/06/21 10:08:40;;;;;;;6.07;3.25;;;26.00;99.90;;;;;;4948497;28;20199;-72
2022/06/21 10:12:06;;;;;;;4.43;2.83;;;25.90;99.90;;;;;;4948782;29;20686;-72
2022/06/21 10:14:53;;;;;;;6.15;3.08;;;26.30;99.90;;;;;;4949842;28;20197;-72
2022/06/21 10:17:56;;;;;;;5.15;3.50;;;26.60;99.90;;;;;;4964457;28;20197;-73
2022/06/21 10:20:51;;;;;;;5.63;3.45;;;26.80;99.90;;;;;;4945960;29;20206;-72
2022/06/21 10:23:42;;;;;;;6.70;3.50;;;26.80;99.90;;;;;;4944888;29;20234;-73
2022/06/21 10:26:33;;;;;;;5.18;3.20;;;25.80;99.90;;;;;;4944076;29;20206;-73
2022/06/21 10:29:28;;;;;;;4.78;3.00;;;25.40;99.90;;;;;;4949499;28;20202;-73
2022/06/21 10:32:13;;;;;;;4.90;3.20;;;25.20;99.90;;;;;;4948211;29;20230;-70
2022/06/21 10:35:17;;;;;;;4.07;2.83;;;24.70;99.90;;;;;;4945702;29;20218;-72
2022/06/21 10:37:50;;;;;;;6.55;2.63;;;24.60;99.90;;;;;;4948366;29;20198;-72
2022/06/21 10:40:41;;;;;;;4.60;3.13;;;25.10;99.90;;;;;;4953283;28;20721;-73
2022/06/21 10:43:48;;;;;;;5.47;2.85;;;25.40;99.90;;;;;;4948858;29;20234;-72
2022/06/21 10:46:28;;;;;;;7.22;2.90;;;25.80;99.90;;;;;;4951694;28;20206;-74
2022/06/21 10:49:16;;;;;;;4.72;2.75;;;26.10;99.90;;;;;;4948881;29;20622;-71
2022/06/21 10:52:22;;;;;;;7.75;3.17;;;26.20;99.90;;;;;;4948045;29;20218;-71
2022/06/21 10:55:08;;;;;;;3.75;2.58;;;26.30;99.90;;;;;;4949889;29;20194;-72
2022/06/21 10:57:59;;;;;;;3.45;3.10;;;25.90;99.90;;;;;;4953186;29;20581;-72
2022/06/21 11:01:17;;;;;;;7.00;2.60;;;25.90;99.90;;;;;;4951797;29;20198;-73
2022/06/21 11:04:08;;;;;;;4.38;2.70;;;25.70;99.90;;;;;;4949721;29;20222;-72
2022/06/21 11:07:09;;;;;;;3.80;2.60;;;25.30;99.90;;;;;;4952015;29;20198;-71
2022/06/21 11:09:57;;;;;;;4.13;2.90;;;25.70;99.90;;;;;;4952651;29;20260;-74
2022/06/21 11:12:54;;;;;;;7.70;2.72;;;26.00;99.90;;;;;;4948280;28;20226;-72
2022/06/21 11:15:39;;;;;;;4.32;2.70;;;26.10;99.90;;;;;;4953646;29;20318;-72
2022/06/21 11:18:24;;;;;;;6.28;2.80;;;26.90;99.90;;;;;;4947964;29;20209;-71
2022/06/21 11:21:17;;;;;;;5.03;2.80;;;28.10;99.90;;;;;;4946363;28;20198;-73
2022/06/21 11:24:11;;;;;;;7.55;2.95;;;28.50;99.90;;;;;;4948550;29;20680;-74
2022/06/21 11:26:41;;;;;;;7.60;2.70;;;28.10;99.90;;;;;;4951747;28;20198;-70
2022/06/21 11:29:24;;;;;;;4.25;2.60;;;27.60;99.90;;;;;;4950827;29;20202;-73
2022/06/21 11:32:04;;;;;;;5.68;3.08;;;27.30;99.90;;;;;;4951999;29;20218;-73
2022/06/21 11:34:39;;;;;;;5.85;2.90;;;27.30;99.90;;;;;;4951557;28;20206;-73
2022/06/21 11:37:29;;;;;;;3.33;2.78;;;27.00;99.90;;;;;;4948835;28;20229;-73
2022/06/21 11:40:24;;;;;;;5.18;2.45;;;26.70;99.90;;;;;;4953192;29;20200;-73
2022/06/21 11:42:57;;;;;;;5.07;2.40;;;27.00;99.90;;;;;;4957357;28;20226;-73
2022/06/21 11:45:53;;;;;;;4.85;2.30;;;26.90;99.90;;;;;;4951055;29;20214;-73
2022/06/21 11:48:32;;;;;;;3.88;2.13;;;26.90;99.90;;;;;;4949984;29;20256;-71
2022/06/21 11:51:01;;;;;;;5.97;2.85;;;27.10;99.90;;;;;;4946607;28;20724;-71
2022/06/21 11:53:43;;;;;;;6.35;2.88;;;27.00;99.90;;;;;;4949049;29;20233;-73
2022/06/21 11:56:34;;;;;;;5.70;2.60;;;26.90;99.90;;;;;;4948031;29;20222;-71
2022/06/21 11:59:14;;;;;;;5.30;2.80;;;26.80;99.90;;;;;;4948375;29;20418;-72
2022/06/21 12:01:58;;;;;;;4.35;2.78;;;26.40;99.90;;;;;;4945925;28;20281;-72
2022/06/21 12:04:35;;;;;;;6.03;2.80;;;26.30;99.90;;;;;;4950933;28;20208;-73
2022/06/21 12:07:16;;;;;;;5.22;2.70;;;26.30;99.90;;;;;;4947660;29;20202;-73
2022/06/21 12:09:56;;;;;;;4.78;2.40;;;26.00;99.90;;;;;;4948914;29;20246;-74
2022/06/21 12:12:42;;;;;;;3.38;2.60;;;26.30;99.90;;;;;;4951189;29;20681;-72
2022/06/21 12:15:36;;;;;;;4.40;2.88;;;26.60;99.90;;;;;;4951030;29;20210;-72
2022/06/21 12:18:15;;;;;;;3.85;2.70;;;26.60;99.90;;;;;;4948030;29;20206;-70
2022/06/21 12:20:51;;;;;;;4.95;2.90;;;26.30;99.90;;;;;;4951794;28;20201;-73
2022/06/21 12:23:29;;;;;;;6.15;3.00;;;26.20;99.90;;;;;;4949639;29;20225;-72
2022/06/21 12:25:57;;;;;;;3.83;2.30;;;26.00;99.90;;;;;;4951096;28;20209;-73
2022/06/21 12:28:26;;;;;;;4.07;2.63;;;25.90;99.90;;;;;;4944078;28;20693;-72
2022/06/21 12:31:01;;;;;;;4.22;2.95;;;26.00;99.90;;;;;;4950225;28;20507;-73
2022/06/21 12:33:33;;;;;;;6.35;3.00;;;26.00;99.90;;;;;;4951698;28;20286;-73
2022/06/21 12:36:00;;;;;;;6.25;3.00;;;26.10;99.90;;;;;;4951693;28;20530;-71
2022/06/21 12:38:34;;;;;;;8.57;2.72;;;26.40;99.90;;;;;;4950916;28;20209;-73
2022/06/21 12:41:33;;;;;;;5.22;2.60;;;26.40;99.90;;;;;;4947860;28;20201;-73
2022/06/21 12:44:11;;;;;;;6.35;2.60;;;26.60;99.90;;;;;;4949405;29;20195;-73
2022/06/21 12:46:48;;;;;;;4.38;2.38;;;26.90;99.80;;;;;;4945835;29;20206;-70
2022/06/21 12:49:34;;;;;;;5.38;2.60;;;27.10;99.60;;;;;;4944058;28;20218;-71
2022/06/21 12:52:30;;;;;;;4.72;2.35;;;26.70;98.50;;;;;;4950548;28;20651;-73
2022/06/21 12:55:05;;;;;;;4.53;2.35;;;26.60;98.70;;;;;;4945717;29;20721;-73
2022/06/21 12:57:51;;;;;;;4.70;2.30;;;26.50;98.70;;;;;;4944991;28;20244;-72
2022/06/21 13:00:49;;;;;;;4.93;2.92;;;26.60;99.10;;;;;;4945785;29;20206;-73
2022/06/21 13:03:24;;;;;;;2.90;2.13;;;26.40;99.40;;;;;;4949371;28;20285;-72
2022/06/21 13:06:12;;;;;;;3.13;2.30;;;26.30;99.40;;;;;;4950637;28;20197;-73
2022/06/21 13:08:51;;;;;;;4.05;2.45;;;26.00;99.20;;;;;;4948762;29;20209;-73
2022/06/21 13:11:41;;;;;;;4.47;2.42;;;26.00;99.90;;;;;;4944816;29;20584;-73
2022/06/21 13:14:20;;;;;;;3.28;2.13;;;26.50;99.30;;;;;;4944605;29;20194;-72
2022/06/21 13:17:09;;;;;;;3.28;1.95;;;27.30;97.60;;;;;;4946664;29;20701;-73
2022/06/21 13:19:46;;;;;;;3.40;2.38;;;27.50;96.00;;;;;;4951064;28;20210;-74
2022/06/21 13:22:27;;;;;;;5.80;2.05;;;27.80;96.50;;;;;;4950202;28;20222;-74
2022/06/21 13:25:03;;;;;;;4.45;2.28;;;28.10;95.50;;;;;;4948056;29;20286;-74
2022/06/21 13:27:37;;;;;;;2.80;2.10;;;28.50;94.80;;;;;;4948894;28;20244;-74
2022/06/21 13:30:28;;;;;;;3.22;2.20;;;28.50;94.80;;;;;;4947445;29;20202;-73
2022/06/21 13:33:09;;;;;;;2.33;2.10;;;28.50;95.00;;;;;;4948630;29;20218;-73
2022/06/21 13:35:56;;;;;;;3.05;1.98;;;28.60;95.30;;;;;;4946154;28;20202;-73
2022/06/21 13:38:45;;;;;;;2.25;2.00;;;28.60;94.70;;;;;;4948295;29;20666;-74
2022/06/21 13:44:44;;;;;;;3.17;2.30;;;28.60;94.10;;;;;;4949288;29;20229;-73
2022/06/21 13:47:20;;;;;;;5.50;2.20;;;28.70;94.50;;;;;;4950449;28;20553;-73
2022/06/21 13:49:52;;;;;;;6.63;2.30;;;28.60;95.50;;;;;;4943832;28;20363;-73
2022/06/21 13:52:29;;;;;;;3.38;2.10;;;29.00;94.30;;;;;;4948041;28;20601;-73
2022/06/21 13:55:40;;;;;;;3.65;1.88;;;29.60;94.40;;;;;;4945546;29;20252;-74